Mahone, West Virginia
Current Conditions -  °F | °C
As of 9:53 PM on Monday 20 Oct 2014 (Local Time) from KPKB Reporting Station
Overcast Overcast  
Wind Chill: 51°   Ceiling: 4100
Heat Index: 51°   Visibility: 10mi
Dew Point: 48°   Wind: 12mph
Humidity: 89%   Direction: 330°NNW
Pressure: 29.96"   Gusts: 18mph
Location:  39.1565°N, 81.0304°W
Report Text: KPKB 210153Z 33010G16KT 10SM BKN041 BKN048 OVC055 11/09 A2996 RMK AO2 PRESRR SLP144 T01060089
Loading
Personal Weather Stations






























Interactive Weather Map
Tropical Storm Tracking
New forecast layout! Learn more

10-Day Weather Forecast

Advertisements
Track Severe Weather on mobile